sensor_id;sensor_type;location;lat;lon;timestamp;P1;durP1;ratioP1;P2;durP2;ratioP2
142;SDS011;63667;49.046;8.468;2023-07-24T00:02:12;16.13;;;8.60;;
142;SDS011;63667;49.046;8.468;2023-07-24T00:04:39;15.23;;;8.40;;
142;SDS011;63667;49.046;8.468;2023-07-24T00:07:06;17.20;;;8.47;;
142;SDS011;63667;49.046;8.468;2023-07-24T00:09:32;19.27;;;8.80;;
142;SDS011;63667;49.046;8.468;2023-07-24T00:11:58;15.73;;;9.33;;
142;SDS011;63667;49.046;8.468;2023-07-24T00:14:26;17.93;;;9.40;;
142;SDS011;63667;49.046;8.468;2023-07-24T00:16:52;18.40;;;9.60;;
142;SDS011;63667;49.046;8.468;2023-07-24T00:19:18;17.77;;;9.10;;
142;SDS011;63667;49.046;8.468;2023-07-24T00:21:45;15.60;;;8.90;;
142;SDS011;63667;49.046;8.468;2023-07-24T00:24:11;15.33;;;8.80;;
142;SDS011;63667;49.046;8.468;2023-07-24T00:26:38;21.07;;;9.30;;
142;SDS011;63667;49.046;8.468;2023-07-24T00:29:04;13.90;;;8.80;;
142;SDS011;63667;49.046;8.468;2023-07-24T00:31:30;17.17;;;8.67;;
142;SDS011;63667;49.046;8.468;2023-07-24T00:33:57;15.67;;;9.23;;
142;SDS011;63667;49.046;8.468;2023-07-24T00:36:26;17.57;;;9.10;;
142;SDS011;63667;49.046;8.468;2023-07-24T00:38:52;17.60;;;9.37;;
142;SDS011;63667;49.046;8.468;2023-07-24T00:41:18;20.80;;;9.00;;
142;SDS011;63667;49.046;8.468;2023-07-24T00:43:45;17.50;;;8.70;;
142;SDS011;63667;49.046;8.468;2023-07-24T00:46:11;26.37;;;9.60;;
142;SDS011;63667;49.046;8.468;2023-07-24T00:48:38;15.77;;;9.20;;
142;SDS011;63667;49.046;8.468;2023-07-24T00:51:05;17.80;;;8.60;;
142;SDS011;63667;49.046;8.468;2023-07-24T00:53:31;14.90;;;9.20;;
142;SDS011;63667;49.046;8.468;2023-07-24T00:55:58;17.43;;;9.40;;
142;SDS011;63667;49.046;8.468;2023-07-24T00:58:24;15.93;;;8.30;;
142;SDS011;63667;49.046;8.468;2023-07-24T01:00:51;16.60;;;9.03;;
142;SDS011;63667;49.046;8.468;2023-07-24T01:03:18;20.23;;;9.03;;
142;SDS011;63667;49.046;8.468;2023-07-24T01:05:44;16.03;;;8.77;;
142;SDS011;63667;49.046;8.468;2023-07-24T01:08:10;17.83;;;7.67;;
142;SDS011;63667;49.046;8.468;2023-07-24T01:10:37;15.80;;;9.07;;
142;SDS011;63667;49.046;8.468;2023-07-24T01:18:10;14.77;;;8.70;;
142;SDS011;63667;49.046;8.468;2023-07-24T01:20:37;15.07;;;8.70;;
142;SDS011;63667;49.046;8.468;2023-07-24T01:23:14;16.13;;;8.70;;
142;SDS011;63667;49.046;8.468;2023-07-24T01:25:59;15.03;;;9.03;;
142;SDS011;63667;49.046;8.468;2023-07-24T01:28:29;13.87;;;8.50;;
142;SDS011;63667;49.046;8.468;2023-07-24T01:30:56;19.57;;;10.03;;
142;SDS011;63667;49.046;8.468;2023-07-24T01:33:23;13.83;;;8.87;;
142;SDS011;63667;49.046;8.468;2023-07-24T01:35:57;17.63;;;8.63;;
142;SDS011;63667;49.046;8.468;2023-07-24T01:38:27;17.23;;;9.00;;
142;SDS011;63667;49.046;8.468;2023-07-24T01:40:53;20.10;;;9.07;;
142;SDS011;63667;49.046;8.468;2023-07-24T01:43:20;15.83;;;9.27;;
142;SDS011;63667;49.046;8.468;2023-07-24T01:45:46;14.83;;;8.87;;
142;SDS011;63667;49.046;8.468;2023-07-24T01:48:13;20.87;;;9.20;;
142;SDS011;63667;49.046;8.468;2023-07-24T01:50:39;17.23;;;9.60;;
142;SDS011;63667;49.046;8.468;2023-07-24T01:53:06;17.20;;;8.33;;
142;SDS011;63667;49.046;8.468;2023-07-24T01:55:32;15.40;;;8.83;;
142;SDS011;63667;49.046;8.468;2023-07-24T01:57:58;14.73;;;8.73;;
142;SDS011;63667;49.046;8.468;2023-07-24T02:00:25;15.17;;;8.80;;
142;SDS011;63667;49.046;8.468;2023-07-24T02:02:51;15.07;;;9.17;;
142;SDS011;63667;49.046;8.468;2023-07-24T02:05:17;16.13;;;9.67;;
142;SDS011;63667;49.046;8.468;2023-07-24T02:07:44;18.87;;;9.70;;
142;SDS011;63667;49.046;8.468;2023-07-24T02:10:10;13.63;;;8.40;;
142;SDS011;63667;49.046;8.468;2023-07-24T02:12:37;22.00;;;10.20;;
142;SDS011;63667;49.046;8.468;2023-07-24T02:15:03;14.67;;;9.57;;
142;SDS011;63667;49.046;8.468;2023-07-24T02:17:30;20.50;;;9.30;;
142;SDS011;63667;49.046;8.468;2023-07-24T02:19:57;17.57;;;9.00;;
142;SDS011;63667;49.046;8.468;2023-07-24T02:22:24;14.57;;;8.80;;
142;SDS011;63667;49.046;8.468;2023-07-24T02:24:50;16.10;;;8.70;;
142;SDS011;63667;49.046;8.468;2023-07-24T02:27:30;17.70;;;9.83;;
142;SDS011;63667;49.046;8.468;2023-07-24T02:29:57;15.73;;;9.43;;
142;SDS011;63667;49.046;8.468;2023-07-24T02:32:24;17.30;;;9.30;;
142;SDS011;63667;49.046;8.468;2023-07-24T02:34:50;15.83;;;8.93;;
142;SDS011;63667;49.046;8.468;2023-07-24T02:37:17;16.17;;;9.37;;
142;SDS011;63667;49.046;8.468;2023-07-24T02:39:43;16.67;;;8.57;;
142;SDS011;63667;49.046;8.468;2023-07-24T02:42:10;20.63;;;9.40;;
142;SDS011;63667;49.046;8.468;2023-07-24T02:44:36;17.07;;;9.10;;
142;SDS011;63667;49.046;8.468;2023-07-24T02:47:03;14.90;;;9.20;;
142;SDS011;63667;49.046;8.468;2023-07-24T02:49:29;17.27;;;9.20;;
142;SDS011;63667;49.046;8.468;2023-07-24T02:51:56;13.43;;;8.10;;
142;SDS011;63667;49.046;8.468;2023-07-24T02:54:22;21.43;;;9.50;;
142;SDS011;63667;49.046;8.468;2023-07-24T02:56:49;15.30;;;9.10;;
142;SDS011;63667;49.046;8.468;2023-07-24T02:59:16;16.70;;;9.37;;
142;SDS011;63667;49.046;8.468;2023-07-24T03:01:42;14.10;;;9.00;;
142;SDS011;63667;49.046;8.468;2023-07-24T03:04:08;15.97;;;8.50;;
142;SDS011;63667;49.046;8.468;2023-07-24T03:06:35;19.13;;;8.93;;
142;SDS011;63667;49.046;8.468;2023-07-24T03:09:01;14.57;;;8.40;;
142;SDS011;63667;49.046;8.468;2023-07-24T03:11:27;14.93;;;8.90;;
142;SDS011;63667;49.046;8.468;2023-07-24T03:13:54;13.53;;;8.20;;
142;SDS011;63667;49.046;8.468;2023-07-24T03:16:21;18.40;;;9.23;;
142;SDS011;63667;49.046;8.468;2023-07-24T03:18:47;14.00;;;8.33;;
142;SDS011;63667;49.046;8.468;2023-07-24T03:21:13;20.87;;;9.20;;
142;SDS011;63667;49.046;8.468;2023-07-24T03:23:40;17.47;;;9.67;;
142;SDS011;63667;49.046;8.468;2023-07-24T03:26:06;19.50;;;9.50;;
142;SDS011;63667;49.046;8.468;2023-07-24T03:28:33;18.13;;;8.60;;
142;SDS011;63667;49.046;8.468;2023-07-24T03:30:59;18.43;;;8.97;;
142;SDS011;63667;49.046;8.468;2023-07-24T03:33:25;17.43;;;8.70;;
142;SDS011;63667;49.046;8.468;2023-07-24T03:35:52;14.90;;;8.73;;
142;SDS011;63667;49.046;8.468;2023-07-24T03:38:18;16.90;;;9.57;;
142;SDS011;63667;49.046;8.468;2023-07-24T03:40:44;15.97;;;9.00;;
142;SDS011;63667;49.046;8.468;2023-07-24T03:43:12;14.70;;;8.90;;
142;SDS011;63667;49.046;8.468;2023-07-24T03:45:39;19.07;;;9.97;;
142;SDS011;63667;49.046;8.468;2023-07-24T03:48:05;15.40;;;8.70;;
142;SDS011;63667;49.046;8.468;2023-07-24T03:50:32;15.73;;;9.80;;
142;SDS011;63667;49.046;8.468;2023-07-24T03:52:58;20.00;;;9.90;;
142;SDS011;63667;49.046;8.468;2023-07-24T03:55:24;18.50;;;9.43;;
142;SDS011;63667;49.046;8.468;2023-07-24T03:57:51;17.47;;;10.27;;
142;SDS011;63667;49.046;8.468;2023-07-24T04:00:17;17.30;;;9.67;;
142;SDS011;63667;49.046;8.468;2023-07-24T04:02:44;21.43;;;10.97;;
142;SDS011;63667;49.046;8.468;2023-07-24T04:05:10;13.60;;;9.17;;
142;SDS011;63667;49.046;8.468;2023-07-24T04:07:36;20.60;;;10.37;;
142;SDS011;63667;49.046;8.468;2023-07-24T04:10:03;18.43;;;11.20;;
142;SDS011;63667;49.046;8.468;2023-07-24T04:12:29;18.10;;;9.30;;
142;SDS011;63667;49.046;8.468;2023-07-24T04:14:56;15.70;;;9.50;;
142;SDS011;63667;49.046;8.468;2023-07-24T04:17:24;22.43;;;9.53;;
142;SDS011;63667;49.046;8.468;2023-07-24T04:19:50;21.73;;;9.93;;
142;SDS011;63667;49.046;8.468;2023-07-24T04:22:17;19.63;;;11.07;;
142;SDS011;63667;49.046;8.468;2023-07-24T04:24:43;23.23;;;10.13;;
142;SDS011;63667;49.046;8.468;2023-07-24T04:27:09;17.67;;;10.43;;
142;SDS011;63667;49.046;8.468;2023-07-24T04:29:36;20.83;;;10.07;;
142;SDS011;63667;49.046;8.468;2023-07-24T04:32:02;20.37;;;11.00;;
142;SDS011;63667;49.046;8.468;2023-07-24T04:34:29;26.73;;;12.53;;
142;SDS011;63667;49.046;8.468;2023-07-24T04:36:55;21.47;;;11.70;;
142;SDS011;63667;49.046;8.468;2023-07-24T04:39:22;18.27;;;10.90;;
142;SDS011;63667;49.046;8.468;2023-07-24T04:41:48;22.23;;;10.47;;
142;SDS011;63667;49.046;8.468;2023-07-24T04:44:14;20.20;;;10.20;;
142;SDS011;63667;49.046;8.468;2023-07-24T04:46:41;29.43;;;10.67;;
142;SDS011;63667;49.046;8.468;2023-07-24T04:49:07;18.67;;;10.30;;
142;SDS011;63667;49.046;8.468;2023-07-24T04:51:33;18.67;;;10.43;;
142;SDS011;63667;49.046;8.468;2023-07-24T04:54:00;22.20;;;9.80;;
142;SDS011;63667;49.046;8.468;2023-07-24T04:56:26;18.70;;;10.60;;
142;SDS011;63667;49.046;8.468;2023-07-24T04:58:52;17.70;;;10.43;;
142;SDS011;63667;49.046;8.468;2023-07-24T05:01:19;22.93;;;10.93;;
142;SDS011;63667;49.046;8.468;2023-07-24T05:03:45;20.73;;;11.70;;
142;SDS011;63667;49.046;8.468;2023-07-24T05:06:11;16.83;;;10.43;;
142;SDS011;63667;49.046;8.468;2023-07-24T05:08:38;19.53;;;10.40;;
142;SDS011;63667;49.046;8.468;2023-07-24T05:11:04;19.50;;;10.40;;
142;SDS011;63667;49.046;8.468;2023-07-24T05:13:31;17.70;;;10.30;;
142;SDS011;63667;49.046;8.468;2023-07-24T05:15:57;22.33;;;10.00;;
142;SDS011;63667;49.046;8.468;2023-07-24T05:18:23;26.37;;;9.30;;
142;SDS011;63667;49.046;8.468;2023-07-24T05:20:50;16.67;;;10.07;;
142;SDS011;63667;49.046;8.468;2023-07-24T05:23:17;14.83;;;9.03;;
142;SDS011;63667;49.046;8.468;2023-07-24T05:25:43;16.17;;;10.13;;
142;SDS011;63667;49.046;8.468;2023-07-24T05:28:09;17.60;;;10.30;;
142;SDS011;63667;49.046;8.468;2023-07-24T05:30:36;17.30;;;9.83;;
142;SDS011;63667;49.046;8.468;2023-07-24T05:33:02;18.60;;;10.40;;
142;SDS011;63667;49.046;8.468;2023-07-24T05:35:29;16.83;;;10.67;;
142;SDS011;63667;49.046;8.468;2023-07-24T05:37:55;17.70;;;10.13;;
142;SDS011;63667;49.046;8.468;2023-07-24T05:40:22;20.33;;;10.27;;
142;SDS011;63667;49.046;8.468;2023-07-24T05:42:48;15.80;;;9.10;;
142;SDS011;63667;49.046;8.468;2023-07-24T05:45:14;17.13;;;10.10;;
142;SDS011;63667;49.046;8.468;2023-07-24T05:47:41;20.30;;;10.03;;
142;SDS011;63667;49.046;8.468;2023-07-24T05:50:07;16.53;;;9.73;;
142;SDS011;63667;49.046;8.468;2023-07-24T05:52:34;22.10;;;11.10;;
142;SDS011;63667;49.046;8.468;2023-07-24T05:55:00;20.00;;;11.20;;
142;SDS011;63667;49.046;8.468;2023-07-24T05:57:27;17.97;;;10.17;;
142;SDS011;63667;49.046;8.468;2023-07-24T05:59:53;17.50;;;10.67;;
142;SDS011;63667;49.046;8.468;2023-07-24T06:02:20;21.20;;;10.70;;
142;SDS011;63667;49.046;8.468;2023-07-24T06:04:46;19.97;;;10.30;;
142;SDS011;63667;49.046;8.468;2023-07-24T06:07:12;21.43;;;10.80;;
142;SDS011;63667;49.046;8.468;2023-07-24T06:09:39;21.73;;;10.40;;
142;SDS011;63667;49.046;8.468;2023-07-24T06:12:05;21.73;;;11.03;;
142;SDS011;63667;49.046;8.468;2023-07-24T06:14:32;18.37;;;10.10;;
142;SDS011;63667;49.046;8.468;2023-07-24T06:16:58;18.43;;;10.30;;
142;SDS011;63667;49.046;8.468;2023-07-24T06:19:24;19.63;;;9.80;;
142;SDS011;63667;49.046;8.468;2023-07-24T06:21:51;16.73;;;10.07;;
142;SDS011;63667;49.046;8.468;2023-07-24T06:24:17;18.83;;;10.73;;
142;SDS011;63667;49.046;8.468;2023-07-24T06:26:44;27.00;;;10.27;;
142;SDS011;63667;49.046;8.468;2023-07-24T06:29:10;21.97;;;10.37;;
142;SDS011;63667;49.046;8.468;2023-07-24T06:31:37;17.57;;;10.13;;
142;SDS011;63667;49.046;8.468;2023-07-24T06:34:03;15.90;;;9.17;;
142;SDS011;63667;49.046;8.468;2023-07-24T06:36:29;19.90;;;10.57;;
142;SDS011;63667;49.046;8.468;2023-07-24T06:38:56;18.00;;;10.30;;
142;SDS011;63667;49.046;8.468;2023-07-24T06:41:22;18.60;;;9.33;;
142;SDS011;63667;49.046;8.468;2023-07-24T06:43:50;18.13;;;9.47;;
142;SDS011;63667;49.046;8.468;2023-07-24T06:46:17;17.10;;;9.80;;
142;SDS011;63667;49.046;8.468;2023-07-24T06:48:43;20.63;;;10.23;;
142;SDS011;63667;49.046;8.468;2023-07-24T06:51:09;17.27;;;10.27;;
142;SDS011;63667;49.046;8.468;2023-07-24T06:53:36;18.67;;;9.40;;
142;SDS011;63667;49.046;8.468;2023-07-24T06:56:02;21.03;;;9.80;;
142;SDS011;63667;49.046;8.468;2023-07-24T06:58:29;18.70;;;8.90;;
142;SDS011;63667;49.046;8.468;2023-07-24T07:00:56;17.83;;;10.60;;
142;SDS011;63667;49.046;8.468;2023-07-24T07:03:22;17.43;;;9.17;;
142;SDS011;63667;49.046;8.468;2023-07-24T07:05:49;17.47;;;9.20;;
142;SDS011;63667;49.046;8.468;2023-07-24T07:08:15;19.83;;;9.10;;
142;SDS011;63667;49.046;8.468;2023-07-24T07:10:41;17.43;;;10.20;;
142;SDS011;63667;49.046;8.468;2023-07-24T07:13:08;17.00;;;9.47;;
142;SDS011;63667;49.046;8.468;2023-07-24T07:15:35;16.07;;;9.97;;
142;SDS011;63667;49.046;8.468;2023-07-24T07:18:02;17.37;;;10.00;;
142;SDS011;63667;49.046;8.468;2023-07-24T07:20:28;17.43;;;10.20;;
142;SDS011;63667;49.046;8.468;2023-07-24T07:22:54;21.70;;;10.00;;
142;SDS011;63667;49.046;8.468;2023-07-24T07:25:21;17.57;;;10.00;;
142;SDS011;63667;49.046;8.468;2023-07-24T07:27:47;18.23;;;9.83;;
142;SDS011;63667;49.046;8.468;2023-07-24T07:30:14;16.90;;;10.00;;
142;SDS011;63667;49.046;8.468;2023-07-24T07:32:40;19.73;;;9.30;;
142;SDS011;63667;49.046;8.468;2023-07-24T07:35:06;15.27;;;9.57;;
142;SDS011;63667;49.046;8.468;2023-07-24T07:37:33;18.00;;;11.20;;
142;SDS011;63667;49.046;8.468;2023-07-24T07:39:59;17.90;;;10.03;;
142;SDS011;63667;49.046;8.468;2023-07-24T07:42:26;19.67;;;10.17;;
142;SDS011;63667;49.046;8.468;2023-07-24T07:44:52;17.40;;;9.60;;
142;SDS011;63667;49.046;8.468;2023-07-24T07:47:19;22.53;;;11.00;;
142;SDS011;63667;49.046;8.468;2023-07-24T07:49:45;26.13;;;10.80;;
142;SDS011;63667;49.046;8.468;2023-07-24T07:52:11;23.40;;;12.30;;
142;SDS011;63667;49.046;8.468;2023-07-24T07:54:40;20.20;;;10.80;;
142;SDS011;63667;49.046;8.468;2023-07-24T07:57:06;22.00;;;11.80;;
142;SDS011;63667;49.046;8.468;2023-07-24T07:59:32;20.97;;;12.03;;
142;SDS011;63667;49.046;8.468;2023-07-24T08:02:01;22.50;;;12.30;;
142;SDS011;63667;49.046;8.468;2023-07-24T08:04:27;20.57;;;11.50;;
142;SDS011;63667;49.046;8.468;2023-07-24T08:06:53;21.07;;;11.73;;
142;SDS011;63667;49.046;8.468;2023-07-24T08:09:20;21.77;;;11.73;;
142;SDS011;63667;49.046;8.468;2023-07-24T08:11:49;26.00;;;11.43;;
142;SDS011;63667;49.046;8.468;2023-07-24T08:14:17;31.77;;;12.80;;
142;SDS011;63667;49.046;8.468;2023-07-24T08:16:43;26.70;;;12.73;;
142;SDS011;63667;49.046;8.468;2023-07-24T08:19:09;24.30;;;12.27;;
142;SDS011;63667;49.046;8.468;2023-07-24T08:21:36;25.03;;;10.50;;
142;SDS011;63667;49.046;8.468;2023-07-24T08:24:04;24.80;;;12.10;;
142;SDS011;63667;49.046;8.468;2023-07-24T08:26:30;18.13;;;11.17;;
142;SDS011;63667;49.046;8.468;2023-07-24T08:28:57;29.83;;;12.00;;
142;SDS011;63667;49.046;8.468;2023-07-24T08:31:23;22.50;;;12.03;;
142;SDS011;63667;49.046;8.468;2023-07-24T08:33:50;18.77;;;11.43;;
142;SDS011;63667;49.046;8.468;2023-07-24T08:36:16;19.17;;;11.03;;
142;SDS011;63667;49.046;8.468;2023-07-24T08:38:42;23.17;;;12.50;;
142;SDS011;63667;49.046;8.468;2023-07-24T08:41:12;21.57;;;10.63;;
142;SDS011;63667;49.046;8.468;2023-07-24T08:43:40;22.37;;;11.37;;
142;SDS011;63667;49.046;8.468;2023-07-24T08:46:06;19.60;;;11.27;;
142;SDS011;63667;49.046;8.468;2023-07-24T08:51:01;24.60;;;12.00;;
142;SDS011;63667;49.046;8.468;2023-07-24T08:53:35;20.97;;;11.07;;
142;SDS011;63667;49.046;8.468;2023-07-24T08:56:05;19.80;;;10.30;;
142;SDS011;63667;49.046;8.468;2023-07-24T08:58:32;19.90;;;11.57;;
142;SDS011;63667;49.046;8.468;2023-07-24T09:00:59;15.90;;;9.70;;
142;SDS011;63667;49.046;8.468;2023-07-24T09:03:25;18.80;;;10.93;;
142;SDS011;63667;49.046;8.468;2023-07-24T09:05:52;20.30;;;10.30;;
142;SDS011;63667;49.046;8.468;2023-07-24T09:10:55;17.83;;;10.50;;
142;SDS011;63667;49.046;8.468;2023-07-24T09:13:24;20.33;;;10.63;;
142;SDS011;63667;49.046;8.468;2023-07-24T09:15:52;17.43;;;10.90;;
142;SDS011;63667;49.046;8.468;2023-07-24T09:18:19;17.80;;;10.53;;
142;SDS011;63667;49.046;8.468;2023-07-24T09:20:46;18.43;;;9.90;;
142;SDS011;63667;49.046;8.468;2023-07-24T09:23:13;16.33;;;10.83;;
142;SDS011;63667;49.046;8.468;2023-07-24T09:25:40;15.83;;;9.70;;
142;SDS011;63667;49.046;8.468;2023-07-24T09:30:37;21.03;;;9.90;;
142;SDS011;63667;49.046;8.468;2023-07-24T09:33:04;16.37;;;9.63;;
142;SDS011;63667;49.046;8.468;2023-07-24T09:35:30;17.27;;;10.40;;
142;SDS011;63667;49.046;8.468;2023-07-24T09:38:04;17.77;;;10.17;;
142;SDS011;63667;49.046;8.468;2023-07-24T09:40:37;13.63;;;9.30;;
142;SDS011;63667;49.046;8.468;2023-07-24T09:43:14;20.80;;;9.70;;
142;SDS011;63667;49.046;8.468;2023-07-24T09:45:40;14.50;;;9.00;;
142;SDS011;63667;49.046;8.468;2023-07-24T09:48:07;20.83;;;10.30;;
142;SDS011;63667;49.046;8.468;2023-07-24T09:50:36;19.27;;;10.37;;
142;SDS011;63667;49.046;8.468;2023-07-24T09:53:03;15.43;;;9.30;;
142;SDS011;63667;49.046;8.468;2023-07-24T09:55:34;15.40;;;9.67;;
142;SDS011;63667;49.046;8.468;2023-07-24T09:58:01;13.80;;;9.10;;
142;SDS011;63667;49.046;8.468;2023-07-24T10:00:28;14.93;;;10.07;;
142;SDS011;63667;49.046;8.468;2023-07-24T10:02:55;16.83;;;10.57;;
142;SDS011;63667;49.046;8.468;2023-07-24T10:05:21;19.80;;;9.87;;
142;SDS011;63667;49.046;8.468;2023-07-24T10:07:48;18.30;;;8.73;;
142;SDS011;63667;49.046;8.468;2023-07-24T10:10:17;14.73;;;9.37;;
142;SDS011;63667;49.046;8.468;2023-07-24T10:12:43;18.40;;;10.10;;
142;SDS011;63667;49.046;8.468;2023-07-24T10:15:10;20.67;;;9.40;;
142;SDS011;63667;49.046;8.468;2023-07-24T10:17:38;16.90;;;10.13;;
142;SDS011;63667;49.046;8.468;2023-07-24T10:20:04;16.83;;;9.53;;
142;SDS011;63667;49.046;8.468;2023-07-24T10:22:31;21.30;;;10.47;;
142;SDS011;63667;49.046;8.468;2023-07-24T10:24:58;19.50;;;10.90;;
142;SDS011;63667;49.046;8.468;2023-07-24T10:27:24;16.03;;;10.57;;
142;SDS011;63667;49.046;8.468;2023-07-24T10:29:57;18.03;;;10.53;;
142;SDS011;63667;49.046;8.468;2023-07-24T10:32:24;17.47;;;10.23;;
142;SDS011;63667;49.046;8.468;2023-07-24T10:35:00;18.33;;;10.30;;
142;SDS011;63667;49.046;8.468;2023-07-24T10:37:33;18.37;;;9.90;;
142;SDS011;63667;49.046;8.468;2023-07-24T10:40:00;23.83;;;10.93;;
142;SDS011;63667;49.046;8.468;2023-07-24T10:42:28;16.60;;;10.33;;
142;SDS011;63667;49.046;8.468;2023-07-24T10:45:07;23.13;;;11.00;;
142;SDS011;63667;49.046;8.468;2023-07-24T10:47:34;16.50;;;10.13;;
142;SDS011;63667;49.046;8.468;2023-07-24T10:50:01;16.30;;;10.13;;
142;SDS011;63667;49.046;8.468;2023-07-24T10:52:31;18.90;;;11.37;;
142;SDS011;63667;49.046;8.468;2023-07-24T10:55:01;15.43;;;9.67;;
142;SDS011;63667;49.046;8.468;2023-07-24T10:57:31;14.70;;;9.70;;
142;SDS011;63667;49.046;8.468;2023-07-24T10:59:58;18.43;;;9.40;;
142;SDS011;63667;49.046;8.468;2023-07-24T11:02:25;19.87;;;11.10;;
142;SDS011;63667;49.046;8.468;2023-07-24T11:04:51;16.53;;;8.97;;
142;SDS011;63667;49.046;8.468;2023-07-24T11:07:18;14.23;;;8.70;;
142;SDS011;63667;49.046;8.468;2023-07-24T11:09:44;18.57;;;9.80;;
142;SDS011;63667;49.046;8.468;2023-07-24T11:12:11;17.23;;;10.13;;
142;SDS011;63667;49.046;8.468;2023-07-24T11:17:13;13.30;;;9.17;;
142;SDS011;63667;49.046;8.468;2023-07-24T11:19:40;15.07;;;8.80;;
142;SDS011;63667;49.046;8.468;2023-07-24T11:22:06;13.20;;;8.70;;
142;SDS011;63667;49.046;8.468;2023-07-24T11:24:41;14.10;;;8.80;;
142;SDS011;63667;49.046;8.468;2023-07-24T11:27:14;12.83;;;8.33;;
142;SDS011;63667;49.046;8.468;2023-07-24T11:29:41;16.87;;;9.53;;
142;SDS011;63667;49.046;8.468;2023-07-24T11:32:08;15.40;;;9.00;;
142;SDS011;63667;49.046;8.468;2023-07-24T11:34:34;13.33;;;8.60;;
142;SDS011;63667;49.046;8.468;2023-07-24T11:37:01;15.47;;;8.77;;
142;SDS011;63667;49.046;8.468;2023-07-24T11:39:27;14.53;;;8.43;;
142;SDS011;63667;49.046;8.468;2023-07-24T11:41:54;13.83;;;8.87;;
142;SDS011;63667;49.046;8.468;2023-07-24T11:44:24;16.37;;;8.83;;
142;SDS011;63667;49.046;8.468;2023-07-24T11:46:51;12.37;;;8.17;;
142;SDS011;63667;49.046;8.468;2023-07-24T11:49:22;20.03;;;8.43;;
142;SDS011;63667;49.046;8.468;2023-07-24T11:51:48;11.90;;;8.30;;
142;SDS011;63667;49.046;8.468;2023-07-24T11:54:15;16.10;;;8.80;;
142;SDS011;63667;49.046;8.468;2023-07-24T11:56:42;13.77;;;8.70;;
142;SDS011;63667;49.046;8.468;2023-07-24T11:59:09;14.03;;;8.77;;
142;SDS011;63667;49.046;8.468;2023-07-24T12:01:35;15.70;;;8.33;;
142;SDS011;63667;49.046;8.468;2023-07-24T12:04:03;17.73;;;10.13;;
142;SDS011;63667;49.046;8.468;2023-07-24T12:06:32;13.30;;;8.73;;
142;SDS011;63667;49.046;8.468;2023-07-24T12:09:02;12.83;;;7.90;;
142;SDS011;63667;49.046;8.468;2023-07-24T12:11:33;11.57;;;8.20;;
142;SDS011;63667;49.046;8.468;2023-07-24T12:14:00;16.30;;;9.20;;
142;SDS011;63667;49.046;8.468;2023-07-24T12:16:27;15.10;;;8.87;;
142;SDS011;63667;49.046;8.468;2023-07-24T12:18:54;13.30;;;8.03;;
142;SDS011;63667;49.046;8.468;2023-07-24T12:21:20;12.97;;;8.57;;
142;SDS011;63667;49.046;8.468;2023-07-24T12:23:47;12.50;;;7.90;;
142;SDS011;63667;49.046;8.468;2023-07-24T12:26:13;12.10;;;8.00;;
142;SDS011;63667;49.046;8.468;2023-07-24T12:28:40;12.43;;;7.40;;
142;SDS011;63667;49.046;8.468;2023-07-24T12:31:06;13.80;;;8.70;;
142;SDS011;63667;49.046;8.468;2023-07-24T12:33:32;14.53;;;7.73;;
142;SDS011;63667;49.046;8.468;2023-07-24T12:35:59;10.23;;;7.23;;
142;SDS011;63667;49.046;8.468;2023-07-24T12:38:27;12.83;;;8.80;;
142;SDS011;63667;49.046;8.468;2023-07-24T12:40:53;11.83;;;7.80;;
142;SDS011;63667;49.046;8.468;2023-07-24T12:43:19;12.73;;;8.33;;
142;SDS011;63667;49.046;8.468;2023-07-24T12:45:46;12.23;;;7.53;;
142;SDS011;63667;49.046;8.468;2023-07-24T12:48:12;11.70;;;7.57;;
142;SDS011;63667;49.046;8.468;2023-07-24T12:50:39;14.50;;;7.90;;
142;SDS011;63667;49.046;8.468;2023-07-24T12:53:05;11.33;;;7.43;;
142;SDS011;63667;49.046;8.468;2023-07-24T12:55:31;11.20;;;7.60;;
142;SDS011;63667;49.046;8.468;2023-07-24T12:57:58;12.30;;;7.50;;
142;SDS011;63667;49.046;8.468;2023-07-24T13:00:24;11.47;;;8.23;;
142;SDS011;63667;49.046;8.468;2023-07-24T13:02:51;10.53;;;7.13;;
142;SDS011;63667;49.046;8.468;2023-07-24T13:05:17;14.93;;;8.13;;
142;SDS011;63667;49.046;8.468;2023-07-24T13:07:43;12.07;;;7.30;;
142;SDS011;63667;49.046;8.468;2023-07-24T13:10:11;10.47;;;8.00;;
142;SDS011;63667;49.046;8.468;2023-07-24T13:12:38;11.63;;;6.93;;
142;SDS011;63667;49.046;8.468;2023-07-24T13:15:04;11.00;;;7.30;;
142;SDS011;63667;49.046;8.468;2023-07-24T13:17:31;10.50;;;7.43;;
142;SDS011;63667;49.046;8.468;2023-07-24T13:19:58;10.87;;;7.30;;
142;SDS011;63667;49.046;8.468;2023-07-24T13:22:24;11.10;;;7.73;;
142;SDS011;63667;49.046;8.468;2023-07-24T13:24:51;10.73;;;6.70;;
142;SDS011;63667;49.046;8.468;2023-07-24T13:27:17;9.97;;;6.53;;
142;SDS011;63667;49.046;8.468;2023-07-24T13:29:46;11.13;;;7.17;;
142;SDS011;63667;49.046;8.468;2023-07-24T13:32:12;9.27;;;7.00;;
142;SDS011;63667;49.046;8.468;2023-07-24T13:34:39;10.87;;;6.47;;
142;SDS011;63667;49.046;8.468;2023-07-24T13:37:05;9.37;;;6.83;;
142;SDS011;63667;49.046;8.468;2023-07-24T13:39:32;10.33;;;7.00;;
142;SDS011;63667;49.046;8.468;2023-07-24T13:41:59;10.00;;;7.50;;
142;SDS011;63667;49.046;8.468;2023-07-24T13:44:26;9.03;;;6.60;;
142;SDS011;63667;49.046;8.468;2023-07-24T13:46:52;10.13;;;6.97;;
142;SDS011;63667;49.046;8.468;2023-07-24T13:49:21;11.33;;;6.80;;
142;SDS011;63667;49.046;8.468;2023-07-24T13:51:47;9.40;;;6.63;;
142;SDS011;63667;49.046;8.468;2023-07-24T13:54:13;12.13;;;7.07;;
142;SDS011;63667;49.046;8.468;2023-07-24T13:56:40;11.60;;;6.93;;
142;SDS011;63667;49.046;8.468;2023-07-24T13:59:06;9.90;;;7.20;;
142;SDS011;63667;49.046;8.468;2023-07-24T14:01:32;8.87;;;7.10;;
142;SDS011;63667;49.046;8.468;2023-07-24T14:03:59;11.10;;;6.80;;
142;SDS011;63667;49.046;8.468;2023-07-24T14:06:26;9.80;;;6.93;;
142;SDS011;63667;49.046;8.468;2023-07-24T14:08:53;9.33;;;6.40;;
142;SDS011;63667;49.046;8.468;2023-07-24T14:11:19;9.17;;;6.13;;
142;SDS011;63667;49.046;8.468;2023-07-24T14:13:45;9.97;;;6.40;;
142;SDS011;63667;49.046;8.468;2023-07-24T14:16:12;9.43;;;6.50;;
142;SDS011;63667;49.046;8.468;2023-07-24T14:18:38;10.83;;;7.20;;
142;SDS011;63667;49.046;8.468;2023-07-24T14:21:05;12.03;;;7.13;;
142;SDS011;63667;49.046;8.468;2023-07-24T14:23:31;12.90;;;7.30;;
142;SDS011;63667;49.046;8.468;2023-07-24T14:25:57;10.10;;;6.23;;
142;SDS011;63667;49.046;8.468;2023-07-24T14:28:24;10.33;;;7.03;;
142;SDS011;63667;49.046;8.468;2023-07-24T14:30:50;12.50;;;6.40;;
142;SDS011;63667;49.046;8.468;2023-07-24T14:33:17;10.60;;;6.30;;
142;SDS011;63667;49.046;8.468;2023-07-24T14:35:43;9.90;;;6.60;;
142;SDS011;63667;49.046;8.468;2023-07-24T14:38:09;9.97;;;6.60;;
142;SDS011;63667;49.046;8.468;2023-07-24T14:40:36;9.93;;;6.30;;
142;SDS011;63667;49.046;8.468;2023-07-24T14:43:02;10.23;;;6.33;;
142;SDS011;63667;49.046;8.468;2023-07-24T14:45:29;9.10;;;6.03;;
142;SDS011;63667;49.046;8.468;2023-07-24T14:47:55;8.40;;;5.70;;
142;SDS011;63667;49.046;8.468;2023-07-24T14:50:22;9.13;;;6.20;;
142;SDS011;63667;49.046;8.468;2023-07-24T14:52:48;10.57;;;5.90;;
142;SDS011;63667;49.046;8.468;2023-07-24T14:55:14;10.53;;;6.13;;
142;SDS011;63667;49.046;8.468;2023-07-24T14:57:41;9.80;;;6.37;;
142;SDS011;63667;49.046;8.468;2023-07-24T15:00:08;8.90;;;6.03;;
142;SDS011;63667;49.046;8.468;2023-07-24T15:02:34;9.67;;;6.50;;
142;SDS011;63667;49.046;8.468;2023-07-24T15:05:01;12.37;;;7.10;;
142;SDS011;63667;49.046;8.468;2023-07-24T15:07:27;9.37;;;6.67;;
142;SDS011;63667;49.046;8.468;2023-07-24T15:09:54;9.90;;;6.70;;
142;SDS011;63667;49.046;8.468;2023-07-24T15:12:20;16.57;;;8.37;;